Time;durP1;ratioP1;P1;durP2;ratioP2;P2;SDS_P1;SDS_P2;PMS_P1;PMS_P2;Temp;Humidity;BMP_temperature;BMP_pressure;BME280_temperature;BME280_humidity;BME280_pressure;Samples;Min_cycle;Max_cycle;Signal;HPM_P1;HPM_P2
2024/04/01 04:27:30;;;;;;;2.03;0.90;;;;;;;;;;2095607;28;20383;-53
2024/04/01 04:28:32;;;;;;;1.63;0.60;;;;;;;;;;2092774;28;20580;-53
2024/04/01 04:29:33;;;;;;;1.15;0.80;;;;;;;;;;2084904;28;20032;-53
2024/04/01 04:30:34;;;;;;;2.35;0.68;;;;;;;;;;2083732;28;20445;-53
2024/04/01 04:31:36;;;;;;;3.22;0.90;;;;;;;;;;2087133;28;20035;-50
2024/04/01 04:32:40;;;;;;;2.53;0.80;;;;;;;;;;2087104;28;20392;-52
2024/04/01 04:33:41;;;;;;;1.58;0.80;;;;;;;;;;2087707;28;20053;-51
2024/04/01 04:34:42;;;;;;;3.53;1.05;;;;;;;;;;2087744;28;20016;-49
2024/04/01 04:35:44;;;;;;;1.10;0.70;;;;;;;;;;2087503;28;20033;-51
2024/04/01 04:36:45;;;;;;;1.77;1.05;;;;;;;;;;2087590;28;20029;-50
2024/04/01 04:37:47;;;;;;;3.60;1.00;;;;;;;;;;2087626;28;20053;-50
2024/04/01 04:38:49;;;;;;;3.20;0.90;;;;;;;;;;2087526;28;20411;-50
2024/04/01 04:39:51;;;;;;;2.13;1.00;;;;;;;;;;2087760;28;20067;-50
2024/04/01 04:40:52;;;;;;;3.80;1.20;;;;;;;;;;2087745;28;20017;-50
2024/04/01 04:41:54;;;;;;;1.05;0.70;;;;;;;;;;2087505;28;20025;-49
2024/04/01 04:42:55;;;;;;;1.77;0.75;;;;;;;;;;2087461;28;20025;-50
2024/04/01 04:43:58;;;;;;;2.45;1.42;;;;;;;;;;2084839;28;20032;-50
2024/04/01 04:44:59;;;;;;;1.98;1.17;;;;;;;;;;2086887;28;20465;-50
2024/04/01 04:46:01;;;;;;;1.70;0.95;;;;;;;;;;2086788;28;20434;-50
2024/04/01 04:47:02;;;;;;;1.30;0.80;;;;;;;;;;2087205;28;20399;-50
2024/04/01 04:48:03;;;;;;;1.20;0.65;;;;;;;;;;2087592;28;20028;-50
2024/04/01 04:49:05;;;;;;;2.38;0.70;;;;;;;;;;2087535;28;20032;-49
2024/04/01 04:50:06;;;;;;;3.40;0.93;;;;;;;;;;2087440;28;20041;-52
2024/04/01 04:51:09;;;;;;;2.80;1.23;;;;;;;;;;2087444;28;20026;-52
2024/04/01 04:52:10;;;;;;;2.00;0.77;;;;;;;;;;2087611;28;20078;-52
2024/04/01 04:53:11;;;;;;;1.95;0.70;;;;;;;;;;2087561;28;20080;-52
2024/04/01 04:54:13;;;;;;;2.80;0.90;;;;;;;;;;2085388;28;20013;-52
2024/04/01 04:55:14;;;;;;;1.02;0.55;;;;;;;;;;2079399;28;20026;-50
2024/04/01 04:56:16;;;;;;;1.75;0.88;;;;;;;;;;2084677;28;20052;-51
2024/04/01 04:57:17;;;;;;;2.33;0.65;;;;;;;;;;2086921;28;20029;-52
2024/04/01 04:58:19;;;;;;;1.25;0.80;;;;;;;;;;2086179;28;20021;-52
2024/04/01 04:59:20;;;;;;;1.65;0.77;;;;;;;;;;2091901;28;20115;-53
2024/04/01 05:00:23;;;;;;;1.63;0.77;;;;;;;;;;2082852;28;20033;-51
2024/04/01 05:01:24;;;;;;;1.15;0.70;;;;;;;;;;2085428;28;20124;-53
2024/04/01 05:02:26;;;;;;;2.17;0.90;;;;;;;;;;2086359;28;20464;-51
2024/04/01 05:03:28;;;;;;;1.83;0.70;;;;;;;;;;2085706;28;20412;-52
2024/04/01 05:04:30;;;;;;;2.05;0.70;;;;;;;;;;2087443;28;20384;-53
2024/04/01 05:05:31;;;;;;;1.02;0.40;;;;;;;;;;2087132;28;20376;-52
2024/04/01 05:06:33;;;;;;;2.42;0.60;;;;;;;;;;2087478;28;20619;-52
2024/04/01 05:07:34;;;;;;;0.95;0.45;;;;;;;;;;2087712;28;20423;-52
2024/04/01 05:08:35;;;;;;;0.85;0.75;;;;;;;;;;2084743;28;20103;-50
2024/04/01 05:09:37;;;;;;;2.53;0.70;;;;;;;;;;2095243;28;20040;-55
2024/04/01 05:10:39;;;;;;;1.17;0.60;;;;;;;;;;2087245;28;20028;-52
2024/04/01 05:11:40;;;;;;;1.85;0.85;;;;;;;;;;2087750;28;20035;-52
2024/04/01 05:12:44;;;;;;;2.65;0.60;;;;;;;;;;2079924;28;20067;-52
2024/04/01 05:13:46;;;;;;;3.00;0.80;;;;;;;;;;2086027;28;20491;-50
2024/04/01 05:14:47;;;;;;;1.02;0.73;;;;;;;;;;2087749;28;20445;-51
2024/04/01 05:15:49;;;;;;;1.83;0.80;;;;;;;;;;2081883;28;20022;-51
2024/04/01 05:16:52;;;;;;;1.27;0.70;;;;;;;;;;2083450;28;20137;-51
2024/04/01 05:17:53;;;;;;;1.85;0.80;;;;;;;;;;2088005;28;20074;-52
2024/04/01 05:18:56;;;;;;;2.67;0.70;;;;;;;;;;2087474;28;20028;-51
2024/04/01 05:19:58;;;;;;;2.13;0.60;;;;;;;;;;2087412;28;20034;-50
2024/04/01 05:20:59;;;;;;;2.10;0.93;;;;;;;;;;2079287;28;20045;-50
2024/04/01 05:22:01;;;;;;;0.90;0.55;;;;;;;;;;2083717;28;20480;-50
2024/04/01 05:23:02;;;;;;;2.10;0.80;;;;;;;;;;2087382;28;20017;-50
2024/04/01 05:24:04;;;;;;;1.45;0.75;;;;;;;;;;2084816;28;20104;-50
2024/04/01 05:25:06;;;;;;;2.70;1.08;;;;;;;;;;2078821;28;20036;-50
2024/04/01 05:26:08;;;;;;;1.00;0.52;;;;;;;;;;2078974;28;20025;-50
2024/04/01 05:27:09;;;;;;;1.00;0.50;;;;;;;;;;2081386;28;20598;-51
2024/04/01 05:28:10;;;;;;;2.28;0.80;;;;;;;;;;2083240;28;20558;-51
2024/04/01 05:29:12;;;;;;;2.28;1.00;;;;;;;;;;2079425;28;20029;-53
2024/04/01 05:30:15;;;;;;;2.92;0.60;;;;;;;;;;2083839;28;20057;-54
2024/04/01 05:31:17;;;;;;;2.38;0.73;;;;;;;;;;2086665;28;20036;-55
2024/04/01 05:32:18;;;;;;;2.33;0.73;;;;;;;;;;2083984;28;20013;-52
2024/04/01 05:33:22;;;;;;;4.07;0.68;;;;;;;;;;2078339;28;20018;-53
2024/04/01 05:34:24;;;;;;;2.50;0.68;;;;;;;;;;2089143;28;20017;-53
2024/04/01 05:35:25;;;;;;;1.77;0.85;;;;;;;;;;2091874;28;20013;-52
2024/04/01 05:36:28;;;;;;;2.63;0.82;;;;;;;;;;2083525;28;20028;-53
2024/04/01 05:37:30;;;;;;;6.07;0.90;;;;;;;;;;2087869;28;20049;-55
2024/04/01 05:38:31;;;;;;;2.22;0.70;;;;;;;;;;2083455;28;20046;-57
2024/04/01 05:39:33;;;;;;;3.53;0.80;;;;;;;;;;2081075;28;20503;-56
2024/04/01 05:40:34;;;;;;;2.83;0.75;;;;;;;;;;2081574;28;20024;-51
2024/04/01 05:41:35;;;;;;;1.63;0.52;;;;;;;;;;2081846;28;20013;-53
2024/04/01 05:42:37;;;;;;;3.10;0.60;;;;;;;;;;2074448;28;20100;-54
2024/04/01 05:43:38;;;;;;;2.08;1.13;;;;;;;;;;2080540;28;20033;-54
2024/04/01 05:44:40;;;;;;;0.80;0.32;;;;;;;;;;2078092;28;20048;-55
2024/04/01 05:45:41;;;;;;;0.98;0.40;;;;;;;;;;2081524;28;20021;-52
2024/04/01 05:46:42;;;;;;;1.13;0.70;;;;;;;;;;2080698;28;20029;-54
2024/04/01 05:47:44;;;;;;;2.15;0.65;;;;;;;;;;2081728;28;20556;-54
2024/04/01 05:48:45;;;;;;;2.40;0.75;;;;;;;;;;2081607;28;20475;-53
2024/04/01 05:49:46;;;;;;;1.58;1.08;;;;;;;;;;2081163;28;20017;-53
2024/04/01 05:50:49;;;;;;;1.83;1.00;;;;;;;;;;2081036;28;20634;-54
2024/04/01 05:51:50;;;;;;;2.40;0.63;;;;;;;;;;2082047;28;20480;-55
2024/04/01 05:52:52;;;;;;;3.63;0.85;;;;;;;;;;2080768;28;20543;-54
2024/04/01 05:53:53;;;;;;;1.63;0.57;;;;;;;;;;2080924;28;20021;-54
2024/04/01 05:54:54;;;;;;;1.70;0.80;;;;;;;;;;2080925;28;20010;-55
2024/04/01 05:55:56;;;;;;;0.88;0.55;;;;;;;;;;2081189;28;20033;-54
2024/04/01 05:56:57;;;;;;;1.75;0.65;;;;;;;;;;2080478;28;20029;-55
2024/04/01 05:57:59;;;;;;;1.88;0.52;;;;;;;;;;2081691;28;20052;-58
2024/04/01 05:59:00;;;;;;;1.10;0.45;;;;;;;;;;2081580;28;20052;-58
2024/04/01 06:00:02;;;;;;;2.55;0.50;;;;;;;;;;2075219;28;20038;-55
2024/04/01 06:01:04;;;;;;;1.10;0.47;;;;;;;;;;2074577;28;20022;-59
2024/04/01 06:02:06;;;;;;;1.70;0.63;;;;;;;;;;2080686;28;20013;-57
2024/04/01 06:03:08;;;;;;;1.65;0.95;;;;;;;;;;2080817;28;20032;-58
2024/04/01 06:04:09;;;;;;;2.85;0.47;;;;;;;;;;2080676;28;20397;-55
2024/04/01 06:05:11;;;;;;;1.75;0.70;;;;;;;;;;2081098;28;20048;-58
2024/04/01 06:06:13;;;;;;;1.52;0.68;;;;;;;;;;2080990;28;20017;-57
2024/04/01 06:07:14;;;;;;;1.17;0.50;;;;;;;;;;2081111;28;20096;-58
2024/04/01 06:08:16;;;;;;;2.20;0.60;;;;;;;;;;2081374;28;20063;-57
2024/04/01 06:09:18;;;;;;;1.63;0.43;;;;;;;;;;2081493;28;20026;-57
2024/04/01 06:10:19;;;;;;;1.30;0.40;;;;;;;;;;2081249;28;20014;-55
2024/04/01 06:11:21;;;;;;;1.50;0.50;;;;;;;;;;2081336;28;20029;-55
2024/04/01 06:12:22;;;;;;;0.98;0.30;;;;;;;;;;2081543;28;20104;-55
2024/04/01 06:13:23;;;;;;;2.72;0.55;;;;;;;;;;2080720;28;20010;-55
2024/04/01 06:14:25;;;;;;;1.60;0.43;;;;;;;;;;2080676;28;20018;-57
2024/04/01 06:15:26;;;;;;;0.77;0.40;;;;;;;;;;2080873;28;20026;-56
2024/04/01 06:16:28;;;;;;;2.67;0.47;;;;;;;;;;2081251;28;20028;-57
2024/04/01 06:17:29;;;;;;;1.95;0.65;;;;;;;;;;2081341;28;20009;-55
2024/04/01 06:18:30;;;;;;;1.60;0.40;;;;;;;;;;2081415;28;20093;-56
2024/04/01 06:19:32;;;;;;;0.95;0.40;;;;;;;;;;2081447;28;20500;-57
2024/04/01 06:20:33;;;;;;;1.88;0.68;;;;;;;;;;2081586;28;20460;-57
2024/04/01 06:21:34;;;;;;;4.30;0.60;;;;;;;;;;2081229;28;20094;-57
2024/04/01 06:22:35;;;;;;;2.38;0.50;;;;;;;;;;2080641;28;20018;-56
2024/04/01 06:23:37;;;;;;;0.70;0.55;;;;;;;;;;2080858;28;20107;-57
2024/04/01 06:24:38;;;;;;;1.30;0.50;;;;;;;;;;2078131;28;20534;-56
2024/04/01 06:25:40;;;;;;;1.90;0.70;;;;;;;;;;2073146;28;20152;-57
2024/04/01 06:26:43;;;;;;;1.88;0.60;;;;;;;;;;2079750;28;20534;-56
2024/04/01 06:27:44;;;;;;;1.08;0.63;;;;;;;;;;2072398;28;20028;-57
2024/04/01 06:28:48;;;;;;;3.40;1.05;;;;;;;;;;2080528;28;20025;-57
2024/04/01 06:29:49;;;;;;;2.42;0.50;;;;;;;;;;2077725;28;20476;-56
2024/04/01 06:30:51;;;;;;;1.33;0.47;;;;;;;;;;2079258;28;20026;-54
2024/04/01 06:31:52;;;;;;;2.72;0.80;;;;;;;;;;2080730;28;20117;-54
2024/04/01 06:32:53;;;;;;;1.95;0.95;;;;;;;;;;2080079;28;20477;-56
2024/04/01 06:33:55;;;;;;;3.85;1.67;;;;;;;;;;2080732;28;20049;-54
2024/04/01 06:34:57;;;;;;;2.17;0.93;;;;;;;;;;2073645;28;20030;-54
2024/04/01 06:36:01;;;;;;;4.20;1.25;;;;;;;;;;2081666;28;20100;-56
2024/04/01 06:37:03;;;;;;;3.42;1.08;;;;;;;;;;2080431;28;20032;-55
2024/04/01 06:38:05;;;;;;;1.33;0.80;;;;;;;;;;2081474;28;20080;-56
2024/04/01 06:39:10;;;;;;;1.75;0.77;;;;;;;;;;2080003;28;20021;-54
2024/04/01 06:40:11;;;;;;;2.85;0.50;;;;;;;;;;2077207;28;20016;-56
2024/04/01 06:41:13;;;;;;;2.63;0.90;;;;;;;;;;2081323;28;20017;-54
2024/04/01 06:42:14;;;;;;;2.03;0.60;;;;;;;;;;2079889;28;20022;-54
2024/04/01 06:43:16;;;;;;;1.30;0.60;;;;;;;;;;2073212;28;20022;-57
2024/04/01 06:44:17;;;;;;;2.72;1.00;;;;;;;;;;2078212;28;20405;-54
2024/04/01 06:45:18;;;;;;;2.00;0.57;;;;;;;;;;2078886;28;20505;-52
2024/04/01 06:46:20;;;;;;;1.85;0.82;;;;;;;;;;2075271;28;20093;-52
2024/04/01 06:47:21;;;;;;;2.08;0.52;;;;;;;;;;2080558;28;20044;-54
2024/04/01 06:48:23;;;;;;;1.75;0.60;;;;;;;;;;2082826;28;20096;-54
2024/04/01 06:49:24;;;;;;;2.80;0.70;;;;;;;;;;2081152;28;20427;-54
2024/04/01 06:50:26;;;;;;;3.38;0.88;;;;;;;;;;2079377;28;20024;-53
2024/04/01 06:51:27;;;;;;;0.77;0.57;;;;;;;;;;2081406;28;20448;-53
2024/04/01 06:52:28;;;;;;;2.53;1.15;;;;;;;;;;2081051;28;20128;-52
2024/04/01 06:53:30;;;;;;;2.70;1.30;;;;;;;;;;2080634;28;20531;-51
2024/04/01 06:54:31;;;;;;;2.30;1.25;;;;;;;;;;2080343;28;20411;-53
2024/04/01 06:55:32;;;;;;;4.72;1.50;;;;;;;;;;2078531;28;20384;-51
2024/04/01 06:56:34;;;;;;;2.85;1.35;;;;;;;;;;2073027;28;20045;-51
2024/04/01 06:57:35;;;;;;;4.32;1.35;;;;;;;;;;2081017;28;20095;-51
2024/04/01 06:58:36;;;;;;;7.63;1.83;;;;;;;;;;2080669;28;20049;-53
2024/04/01 06:59:38;;;;;;;8.23;1.77;;;;;;;;;;2081385;28;20153;-52
2024/04/01 07:00:40;;;;;;;4.15;1.45;;;;;;;;;;2076565;28;20060;-52
2024/04/01 07:01:41;;;;;;;7.47;1.45;;;;;;;;;;2075947;28;20033;-51
2024/04/01 07:02:42;;;;;;;4.05;1.50;;;;;;;;;;2072908;28;20153;-51
2024/04/01 07:03:44;;;;;;;3.50;1.10;;;;;;;;;;2079235;28;20033;-52
2024/04/01 07:04:45;;;;;;;5.43;1.30;;;;;;;;;;2079674;28;20103;-51
2024/04/01 07:05:47;;;;;;;3.35;1.10;;;;;;;;;;2080020;28;20030;-51
2024/04/01 07:06:49;;;;;;;2.00;0.82;;;;;;;;;;2080852;28;20029;-52
2024/04/01 07:07:50;;;;;;;3.88;1.17;;;;;;;;;;2080959;28;20535;-52
2024/04/01 07:08:52;;;;;;;3.33;1.17;;;;;;;;;;2080665;28;20033;-50
2024/04/01 07:09:53;;;;;;;3.13;1.00;;;;;;;;;;2076847;28;20029;-53
2024/04/01 07:10:55;;;;;;;3.63;1.33;;;;;;;;;;2075515;28;20021;-54
2024/04/01 07:11:57;;;;;;;2.97;1.27;;;;;;;;;;2077424;28;20037;-50
2024/04/01 07:12:59;;;;;;;1.85;1.15;;;;;;;;;;2081061;28;20475;-52
2024/04/01 07:14:00;;;;;;;3.63;1.33;;;;;;;;;;2076771;28;20017;-54
2024/04/01 07:15:02;;;;;;;2.28;1.00;;;;;;;;;;2081065;28;20028;-52
2024/04/01 07:16:03;;;;;;;2.55;1.05;;;;;;;;;;2080929;28;20017;-53
2024/04/01 07:17:05;;;;;;;2.35;1.00;;;;;;;;;;2080307;28;20033;-53
2024/04/01 07:18:06;;;;;;;2.05;0.82;;;;;;;;;;2077739;28;20014;-52
2024/04/01 07:19:08;;;;;;;2.65;1.00;;;;;;;;;;2077902;28;20021;-53
2024/04/01 07:20:09;;;;;;;2.45;0.88;;;;;;;;;;2080990;28;20033;-53
2024/04/01 07:21:11;;;;;;;5.32;1.05;;;;;;;;;;2080402;28;20575;-49
2024/04/01 07:22:13;;;;;;;3.50;1.13;;;;;;;;;;2080387;28;20655;-53
2024/04/01 07:23:14;;;;;;;4.35;1.10;;;;;;;;;;2073838;28;20010;-52
2024/04/01 07:24:16;;;;;;;4.47;1.50;;;;;;;;;;2080853;28;20039;-54
2024/04/01 07:25:18;;;;;;;2.85;1.20;;;;;;;;;;2080948;28;20544;-54
2024/04/01 07:26:19;;;;;;;6.03;1.73;;;;;;;;;;2081258;28;20014;-54
2024/04/01 07:27:21;;;;;;;4.00;1.38;;;;;;;;;;2075925;28;20037;-50
2024/04/01 07:28:22;;;;;;;4.38;1.38;;;;;;;;;;2074527;28;20425;-54
2024/04/01 07:29:23;;;;;;;1.67;1.17;;;;;;;;;;2078901;28;20043;-53
2024/04/01 07:30:26;;;;;;;3.10;1.73;;;;;;;;;;2078064;28;20101;-52
2024/04/01 07:31:27;;;;;;;4.90;1.88;;;;;;;;;;2073019;28;20024;-52
2024/04/01 07:32:32;;;;;;;3.22;1.88;;;;;;;;;;2090330;28;20538;-52
2024/04/01 07:33:33;;;;;;;5.38;2.40;;;;;;;;;;2081648;28;20059;-51
2024/04/01 07:34:34;;;;;;;3.88;2.03;;;;;;;;;;2076035;28;20033;-52
2024/04/01 07:35:36;;;;;;;8.70;2.35;;;;;;;;;;2080668;28;20439;-52
2024/04/01 07:36:38;;;;;;;5.65;2.58;;;;;;;;;;2080952;28;20522;-51
2024/04/01 07:37:41;;;;;;;5.15;1.88;;;;;;;;;;2080118;28;20006;-52
2024/04/01 07:38:43;;;;;;;5.68;1.80;;;;;;;;;;2081025;28;20654;-52
2024/04/01 07:39:44;;;;;;;8.02;1.10;;;;;;;;;;2080951;28;20379;-53
2024/04/01 07:40:45;;;;;;;2.28;1.05;;;;;;;;;;2072247;28;20014;-51
2024/04/01 07:41:47;;;;;;;5.35;1.38;;;;;;;;;;2072161;28;20038;-53
2024/04/01 07:42:49;;;;;;;3.38;1.13;;;;;;;;;;2077609;28;20505;-52
2024/04/01 07:43:51;;;;;;;2.88;1.30;;;;;;;;;;2080724;28;20045;-54
2024/04/01 07:44:52;;;;;;;3.90;1.40;;;;;;;;;;2072807;28;20402;-54
2024/04/01 07:45:55;;;;;;;4.10;1.27;;;;;;;;;;2074950;28;20029;-55
2024/04/01 07:46:57;;;;;;;4.78;1.15;;;;;;;;;;2072607;28;20033;-55
2024/04/01 07:47:58;;;;;;;4.22;1.45;;;;;;;;;;2078080;28;20022;-53
2024/04/01 07:48:59;;;;;;;2.67;1.23;;;;;;;;;;2080718;28;20021;-53
2024/04/01 07:50:01;;;;;;;3.03;1.10;;;;;;;;;;2081031;28;20095;-54
2024/04/01 07:51:03;;;;;;;5.75;1.20;;;;;;;;;;2079916;28;20022;-54
2024/04/01 07:52:04;;;;;;;3.17;1.38;;;;;;;;;;2076251;28;20107;-51
2024/04/01 07:53:05;;;;;;;4.45;1.25;;;;;;;;;;2080062;28;20044;-55
2024/04/01 07:54:07;;;;;;;5.05;1.08;;;;;;;;;;2080753;28;20029;-54
2024/04/01 07:55:08;;;;;;;3.47;1.25;;;;;;;;;;2080378;28;20092;-54
2024/04/01 07:56:09;;;;;;;3.03;1.00;;;;;;;;;;2079696;28;20597;-53
2024/04/01 07:57:12;;;;;;;2.15;1.20;;;;;;;;;;2079231;28;20075;-54
2024/04/01 07:58:14;;;;;;;3.70;1.30;;;;;;;;;;2080820;28;20140;-51
2024/04/01 07:59:15;;;;;;;3.10;1.23;;;;;;;;;;2071662;28;20049;-53
2024/04/01 08:00:17;;;;;;;2.08;1.20;;;;;;;;;;2071688;28;20529;-54
2024/04/01 08:01:19;;;;;;;3.03;1.20;;;;;;;;;;2072418;28;20105;-53
2024/04/01 08:02:20;;;;;;;4.25;1.30;;;;;;;;;;2079880;28;20453;-54
2024/04/01 08:03:22;;;;;;;3.53;1.10;;;;;;;;;;2080076;28;20037;-54
2024/04/01 08:04:23;;;;;;;3.90;1.70;;;;;;;;;;2078053;28;20017;-52
2024/04/01 08:05:25;;;;;;;2.58;1.48;;;;;;;;;;2074764;28;20401;-51
2024/04/01 08:06:26;;;;;;;4.57;1.17;;;;;;;;;;2078782;28;20437;-50
2024/04/01 08:07:28;;;;;;;1.25;0.95;;;;;;;;;;2079958;28;20031;-52
2024/04/01 08:08:29;;;;;;;2.45;1.08;;;;;;;;;;2080604;28;20085;-51
2024/04/01 08:09:31;;;;;;;2.63;1.20;;;;;;;;;;2080104;28;20052;-52
2024/04/01 08:10:32;;;;;;;2.97;1.00;;;;;;;;;;2078977;28;20005;-51
2024/04/01 08:11:33;;;;;;;4.45;1.52;;;;;;;;;;2080698;28;20025;-51
2024/04/01 08:12:35;;;;;;;1.70;1.10;;;;;;;;;;2080980;28;20627;-51
2024/04/01 08:13:38;;;;;;;2.53;0.90;;;;;;;;;;2080835;28;20040;-51
2024/04/01 08:14:40;;;;;;;1.85;0.90;;;;;;;;;;2080587;28;20372;-51
2024/04/01 08:15:41;;;;;;;2.55;0.88;;;;;;;;;;2072038;28;20034;-52
2024/04/01 08:16:44;;;;;;;1.65;0.73;;;;;;;;;;2071844;28;20072;-50
2024/04/01 08:17:46;;;;;;;2.53;0.70;;;;;;;;;;2080065;28;20021;-52
2024/04/01 08:18:47;;;;;;;2.42;0.77;;;;;;;;;;2072633;28;20034;-50
2024/04/01 08:19:49;;;;;;;1.48;0.50;;;;;;;;;;2078612;28;20063;-50
2024/04/01 08:20:50;;;;;;;1.20;0.40;;;;;;;;;;2080892;28;20024;-51
2024/04/01 08:21:51;;;;;;;1.45;0.50;;;;;;;;;;2078572;28;20020;-49
2024/04/01 08:22:53;;;;;;;0.63;0.30;;;;;;;;;;2077174;28;20017;-51
2024/04/01 08:23:54;;;;;;;1.48;0.40;;;;;;;;;;2080436;28;20059;-54
2024/04/01 08:24:55;;;;;;;1.17;0.35;;;;;;;;;;2072584;28;20053;-53
2024/04/01 08:25:57;;;;;;;1.38;0.52;;;;;;;;;;2079293;28;20027;-53
2024/04/01 08:26:58;;;;;;;1.02;0.35;;;;;;;;;;2080497;28;20065;-51
2024/04/01 08:27:59;;;;;;;0.80;0.40;;;;;;;;;;2080503;28;20509;-52
2024/04/01 08:29:01;;;;;;;2.13;0.20;;;;;;;;;;2080695;28;20021;-52
2024/04/01 08:30:03;;;;;;;3.53;0.38;;;;;;;;;;2079827;28;20054;-52
2024/04/01 08:31:05;;;;;;;2.22;0.55;;;;;;;;;;2072038;28;20060;-52
2024/04/01 08:32:07;;;;;;;0.68;0.30;;;;;;;;;;2065461;28;20061;-52
2024/04/01 08:33:08;;;;;;;0.60;0.30;;;;;;;;;;2072916;28;20071;-52
2024/04/01 08:34:10;;;;;;;0.93;0.50;;;;;;;;;;2073387;28;20022;-52
2024/04/01 08:35:11;;;;;;;0.90;0.35;;;;;;;;;;2074481;28;20441;-52
2024/04/01 08:36:12;;;;;;;1.73;0.43;;;;;;;;;;2080080;28;20026;-52
2024/04/01 08:37:14;;;;;;;5.63;0.60;;;;;;;;;;2079415;28;20444;-51
2024/04/01 08:38:15;;;;;;;0.60;0.30;;;;;;;;;;2079866;28;20026;-53
2024/04/01 08:39:17;;;;;;;1.00;0.20;;;;;;;;;;2080142;28;20025;-50
2024/04/01 08:40:19;;;;;;;0.90;0.28;;;;;;;;;;2080568;28;20025;-51
2024/04/01 08:41:20;;;;;;;1.85;0.20;;;;;;;;;;2080766;28;20112;-51
2024/04/01 08:42:22;;;;;;;2.00;0.57;;;;;;;;;;2080703;28;20017;-51
2024/04/01 08:43:30;;;;;;;1.77;0.73;;;;;;;;;;2080652;28;20021;-52
2024/04/01 08:44:32;;;;;;;2.72;0.80;;;;;;;;;;2080415;28;20022;-50
2024/04/01 08:45:34;;;;;;;2.55;0.60;;;;;;;;;;2080658;28;20021;-52
2024/04/01 08:46:39;;;;;;;1.52;0.70;;;;;;;;;;2080449;28;20024;-51
2024/04/01 08:47:44;;;;;;;2.58;0.50;;;;;;;;;;2080759;28;20041;-52
2024/04/01 08:48:48;;;;;;;2.08;0.80;;;;;;;;;;2080540;28;20412;-52
2024/04/01 08:50:04;;;;;;;0.85;0.50;;;;;;;;;;2080586;28;20029;-52
2024/04/01 08:51:06;;;;;;;0.85;0.43;;;;;;;;;;2073641;28;20024;-52
2024/04/01 08:52:09;;;;;;;0.88;0.30;;;;;;;;;;2080624;28;20021;-53
2024/04/01 08:53:16;;;;;;;1.08;0.60;;;;;;;;;;2080720;28;20021;-52
2024/04/01 08:54:17;;;;;;;0.95;0.50;;;;;;;;;;2080176;28;20109;-55
2024/04/01 08:55:20;;;;;;;0.85;0.30;;;;;;;;;;2071804;28;20022;-54
2024/04/01 08:56:22;;;;;;;1.20;0.40;;;;;;;;;;2080085;28;20488;-54
2024/04/01 08:57:23;;;;;;;0.98;0.52;;;;;;;;;;2080829;28;20239;-55
2024/04/01 08:58:25;;;;;;;2.22;0.90;;;;;;;;;;2079634;28;20085;-53
2024/04/01 08:59:26;;;;;;;1.98;0.75;;;;;;;;;;2080127;28;20481;-52
2024/04/01 09:00:28;;;;;;;0.90;0.40;;;;;;;;;;2080691;28;20040;-55
2024/04/01 09:01:30;;;;;;;2.30;0.43;;;;;;;;;;2075599;28;20057;-54
2024/04/01 09:02:32;;;;;;;1.65;0.30;;;;;;;;;;2079986;28;20074;-53
2024/04/01 09:03:33;;;;;;;1.52;0.40;;;;;;;;;;2080530;28;20031;-53
2024/04/01 09:04:34;;;;;;;1.25;0.55;;;;;;;;;;2080078;28;20024;-54
2024/04/01 09:05:36;;;;;;;1.50;0.60;;;;;;;;;;2079760;28;20400;-53
2024/04/01 09:06:37;;;;;;;1.23;0.57;;;;;;;;;;2080184;28;20052;-52
2024/04/01 09:07:38;;;;;;;1.80;0.52;;;;;;;;;;2080083;28;20026;-52
2024/04/01 09:08:40;;;;;;;2.70;0.50;;;;;;;;;;2080151;28;20362;-54
2024/04/01 09:09:42;;;;;;;1.17;0.70;;;;;;;;;;2080628;28;20056;-54
2024/04/01 09:10:43;;;;;;;1.15;0.40;;;;;;;;;;2075101;28;20057;-52
2024/04/01 09:11:44;;;;;;;2.13;0.55;;;;;;;;;;2080488;28;20026;-55
2024/04/01 09:12:46;;;;;;;1.20;0.57;;;;;;;;;;2080418;28;20030;-52
2024/04/01 09:13:48;;;;;;;2.15;0.40;;;;;;;;;;2081070;28;20024;-53
2024/04/01 09:14:50;;;;;;;1.67;0.60;;;;;;;;;;2082281;28;20396;-53
2024/04/01 09:15:51;;;;;;;3.00;0.47;;;;;;;;;;2081527;28;20477;-52
2024/04/01 09:16:53;;;;;;;3.42;0.60;;;;;;;;;;2081295;28;20022;-57
2024/04/01 09:17:56;;;;;;;1.85;0.65;;;;;;;;;;2081885;28;20080;-52
2024/04/01 09:19:06;;;;;;;1.80;0.30;;;;;;;;;;2082046;28;20095;-54
2024/04/01 09:20:08;;;;;;;2.08;0.60;;;;;;;;;;2082256;28;20437;-53
2024/04/01 09:21:09;;;;;;;0.90;0.40;;;;;;;;;;2081838;28;20052;-52
2024/04/01 09:22:11;;;;;;;1.52;0.35;;;;;;;;;;2081953;28;20447;-53
2024/04/01 09:23:13;;;;;;;2.40;0.77;;;;;;;;;;2082213;28;20108;-55
2024/04/01 09:24:14;;;;;;;1.10;0.50;;;;;;;;;;2077323;28;20393;-52
2024/04/01 09:25:15;;;;;;;0.88;0.40;;;;;;;;;;2074144;28;20409;-53
2024/04/01 09:26:17;;;;;;;2.97;0.40;;;;;;;;;;2078402;28;20032;-53
2024/04/01 09:27:23;;;;;;;1.05;0.40;;;;;;;;;;2076535;28;20041;-54
2024/04/01 09:28:24;;;;;;;1.90;0.38;;;;;;;;;;2073714;28;20022;-54
2024/04/01 09:29:26;;;;;;;2.63;0.40;;;;;;;;;;2075354;28;20094;-53
2024/04/01 09:30:27;;;;;;;0.75;0.45;;;;;;;;;;2077147;28;20100;-53
2024/04/01 09:31:29;;;;;;;0.85;0.30;;;;;;;;;;2073067;28;20033;-53
2024/04/01 09:32:30;;;;;;;1.48;0.38;;;;;;;;;;2069132;28;20121;-53
2024/04/01 09:33:32;;;;;;;0.80;0.30;;;;;;;;;;2076857;28;20032;-51
2024/04/01 09:34:35;;;;;;;2.08;0.55;;;;;;;;;;2075966;28;20508;-54
2024/04/01 09:35:36;;;;;;;3.17;0.60;;;;;;;;;;2079429;28;20006;-54
2024/04/01 09:36:38;;;;;;;0.57;0.40;;;;;;;;;;2080573;28;20055;-52
2024/04/01 09:37:40;;;;;;;3.22;0.40;;;;;;;;;;2081938;28;20079;-53
2024/04/01 09:38:41;;;;;;;1.55;0.38;;;;;;;;;;2078559;28;20049;-52
2024/04/01 09:39:42;;;;;;;3.15;0.50;;;;;;;;;;2078753;28;20153;-54
2024/04/01 09:40:51;;;;;;;0.45;0.30;;;;;;;;;;2081811;28;20006;-55
2024/04/01 09:41:53;;;;;;;2.97;0.50;;;;;;;;;;2078834;28;20033;-52
2024/04/01 09:42:58;;;;;;;1.23;0.40;;;;;;;;;;2080805;28;20393;-52
2024/04/01 09:44:00;;;;;;;1.60;0.40;;;;;;;;;;2074074;28;20048;-52
2024/04/01 09:45:04;;;;;;;5.57;0.50;;;;;;;;;;2077714;28;20048;-52
2024/04/01 09:46:06;;;;;;;5.32;0.60;;;;;;;;;;2080959;28;20014;-53
2024/04/01 09:47:08;;;;;;;1.63;0.63;;;;;;;;;;2078824;28;20038;-53
2024/04/01 09:48:09;;;;;;;1.42;0.40;;;;;;;;;;2086363;28;20405;-55
2024/04/01 09:49:11;;;;;;;4.15;0.50;;;;;;;;;;2081834;28;20021;-52
2024/04/01 09:50:13;;;;;;;1.88;0.40;;;;;;;;;;2081561;28;20021;-52
2024/04/01 09:51:15;;;;;;;3.28;0.60;;;;;;;;;;2083755;28;20029;-53
2024/04/01 09:52:16;;;;;;;1.60;0.60;;;;;;;;;;2083322;28;20010;-54
2024/04/01 09:53:17;;;;;;;2.40;0.50;;;;;;;;;;2081195;28;20077;-53
2024/04/01 09:54:19;;;;;;;0.80;0.35;;;;;;;;;;2081025;28;20088;-55
2024/04/01 09:55:21;;;;;;;4.07;0.60;;;;;;;;;;2073931;28;20049;-54
2024/04/01 09:56:31;;;;;;;1.15;0.40;;;;;;;;;;2078072;28;20029;-52
2024/04/01 09:57:35;;;;;;;5.85;0.77;;;;;;;;;;2081964;28;20037;-51
2024/04/01 09:58:39;;;;;;;2.13;0.38;;;;;;;;;;2082007;28;20029;-54
2024/04/01 09:59:56;;;;;;;2.17;0.50;;;;;;;;;;2081738;28;20420;-53
2024/04/01 10:01:13;;;;;;;3.40;0.50;;;;;;;;;;2075930;28;20034;-54
2024/04/01 10:02:32;;;;;;;3.53;0.63;;;;;;;;;;2076153;28;20022;-53
2024/04/01 10:03:34;;;;;;;2.78;0.60;;;;;;;;;;2076546;28;20009;-54
2024/04/01 10:04:41;;;;;;;2.65;0.63;;;;;;;;;;2080754;28;20404;-52
2024/04/01 10:05:55;;;;;;;1.70;0.30;;;;;;;;;;2074716;28;20424;-53
2024/04/01 10:07:15;;;;;;;3.47;0.68;;;;;;;;;;2080796;28;20480;-59
2024/04/01 10:08:35;;;;;;;2.97;0.60;;;;;;;;;;2081438;28;20461;-55
2024/04/01 10:09:48;;;;;;;2.63;0.70;;;;;;;;;;2081673;28;20017;-55
2024/04/01 10:10:58;;;;;;;3.70;0.80;;;;;;;;;;2084225;28;20515;-53
2024/04/01 10:12:23;;;;;;;1.58;0.30;;;;;;;;;;2086618;28;20032;-58
2024/04/01 10:13:51;;;;;;;8.68;0.60;;;;;;;;;;2078648;28;20021;-56
2024/04/01 10:15:19;;;;;;;2.80;0.50;;;;;;;;;;2076144;28;20460;-56
2024/04/01 10:16:39;;;;;;;3.10;0.50;;;;;;;;;;2073585;28;20033;-58
2024/04/01 10:17:57;;;;;;;2.28;0.40;;;;;;;;;;2081519;28;20366;-57
2024/04/01 10:19:07;;;;;;;2.65;0.40;;;;;;;;;;2073435;28;20041;-58
2024/04/01 10:20:14;;;;;;;0.90;0.35;;;;;;;;;;2079573;28;20376;-58
2024/04/01 10:21:31;;;;;;;2.47;0.38;;;;;;;;;;2081454;28;20021;-56
2024/04/01 10:22:35;;;;;;;3.20;0.60;;;;;;;;;;2080875;28;20029;-58
2024/04/01 10:24:06;;;;;;;2.28;0.75;;;;;;;;;;2080572;28;20424;-56
2024/04/01 10:25:26;;;;;;;1.98;0.32;;;;;;;;;;2072267;28;20084;-58
2024/04/01 10:26:36;;;;;;;1.15;0.32;;;;;;;;;;2078145;28;20560;-54
2024/04/01 10:27:53;;;;;;;2.95;0.52;;;;;;;;;;2077087;28;20030;-54
2024/04/01 10:29:06;;;;;;;3.00;0.40;;;;;;;;;;2081958;28;20340;-54
2024/04/01 10:30:10;;;;;;;1.10;0.35;;;;;;;;;;2086614;28;20110;-54
2024/04/01 10:31:15;;;;;;;2.90;0.98;;;;;;;;;;2074394;28;20492;-55
2024/04/01 10:32:16;;;;;;;1.70;0.35;;;;;;;;;;2075316;28;20025;-54
2024/04/01 10:33:38;;;;;;;2.20;0.57;;;;;;;;;;2080848;28;20036;-53
2024/04/01 10:34:58;;;;;;;2.20;0.60;;;;;;;;;;2079855;28;20013;-54
2024/04/01 10:36:15;;;;;;;2.97;0.37;;;;;;;;;;2080827;28;20044;-53
2024/04/01 10:37:20;;;;;;;2.50;0.45;;;;;;;;;;2080389;28;20291;-54
2024/04/01 10:39:01;;;;;;;2.78;0.45;;;;;;;;;;2081051;28;20133;-55
2024/04/01 10:40:02;;;;;;;2.58;0.40;;;;;;;;;;2072064;28;20169;-54
2024/04/01 10:41:21;;;;;;;3.05;0.65;;;;;;;;;;2072182;28;20033;-53
2024/04/01 10:42:32;;;;;;;2.95;0.50;;;;;;;;;;2077070;28;20088;-55
2024/04/01 10:43:49;;;;;;;2.47;0.52;;;;;;;;;;2072093;28;20559;-55
2024/04/01 10:45:02;;;;;;;1.92;0.52;;;;;;;;;;2072594;28;20132;-52
2024/04/01 10:46:06;;;;;;;2.25;0.47;;;;;;;;;;2074605;28;20040;-54